Estación Meteorológica Peña el Pijo (Robertgarden) [ 01/30/23 15:00:20 CET ]

Fecha Hora Presion(HPa) Temp (°C) Humedad % Rocio (°C) Viento ( m/s) Direccion Lluvia 1Hora(mm) Lluvia 24H(mm) LLuvia Total(mm)
2012-Sep-11 01:01:14 1013.400 14.5 68 8.7         178.19
2012-Sep-11 02:01:13 1013.300 13.6 69 8.0         178.19
2012-Sep-11 03:01:47 1013.300 13.2 70 7.9         178.19
2012-Sep-11 04:03:15 1013.300 13.1 70 7.8         178.19
2012-Sep-11 05:01:16 1013.200 11.9 72 7.0         178.19
2012-Sep-11 06:01:16 1013.300 11.3 74 6.8         178.19
2012-Sep-11 07:01:17 1013.300 10.8 75 6.5         178.19
2012-Sep-11 08:01:14 1013.600 10.0 78 6.3         178.19
2012-Sep-11 09:01:14 1013.900 12.4 80 9.1         178.19
2012-Sep-11 10:01:14 1013.800 19.6 58 11.1         178.19
2012-Sep-11 11:01:13 1013.800 24.9 42 11.1         178.19
2012-Sep-11 12:01:14 1013.600 25.9 37 10.0         178.19
2012-Sep-11 13:01:14 1013.400 29.3 30 10.0         178.19
2012-Sep-11 14:01:12 1012.900 32.6 25 9.8         178.19
2012-Sep-11 15:01:11 1012.700 31.9 24 8.6 0.8 NE     178.19
2012-Sep-11 16:01:19 1012.200 33.3 22 8.6         178.19
2012-Sep-11 17:01:16 1011.700 32.9 22 8.2         178.19
2012-Sep-11 18:01:14 1011.900 30.9 25 8.4         178.19
2012-Sep-11 19:01:12 1012.200 27.5 28 7.2         178.19
2012-Sep-11 20:01:14 1012.600 25.4 37 9.6         178.19
2012-Sep-11 21:01:14 1013.300 22.9 45 10.3         178.19
2012-Sep-11 22:01:13 1014.200 21.6 54 11.9         178.19
2012-Sep-11 23:01:11 1014.800 18.8 60 10.9         178.19

Temperatura Máxima:33°    Temperatura Mínima:10°
Presión Máxima:1014.800 Hpa    Presión Mínima:1011.700 Hpa


Volver